createdAt,value
2018-06-13T00:02:26.982Z,100985.43
2018-06-13T00:04:55.718Z,100981.45
2018-06-13T00:07:24.277Z,100984.06
2018-06-13T00:09:52.854Z,100979.11
2018-06-13T00:12:21.434Z,100983.52
2018-06-13T00:14:50.054Z,100987.83
2018-06-13T00:17:19.189Z,100988.55
2018-06-13T00:19:47.773Z,100992.58
2018-06-13T00:22:16.383Z,100992.34
2018-06-13T00:24:44.948Z,100994.97
2018-06-13T00:27:13.568Z,100998.83
2018-06-13T00:29:42.244Z,100999.98
2018-06-13T00:32:10.833Z,101002.87
2018-06-13T00:34:39.503Z,101011.14
2018-06-13T00:37:08.131Z,101001.18
2018-06-13T00:39:36.736Z,101005.98
2018-06-13T00:42:05.349Z,101010.42
2018-06-13T00:44:34.076Z,101013.81
2018-06-13T00:47:02.629Z,101013.41
2018-06-13T00:49:31.181Z,101011.34
2018-06-13T00:52:00.321Z,101005.73
2018-06-13T00:54:28.861Z,101009.67
2018-06-13T00:56:57.663Z,101008.46
2018-06-13T00:59:26.200Z,101012.39
2018-06-13T01:01:54.797Z,101018.47
2018-06-13T01:04:23.495Z,101021.89
2018-06-13T01:06:52.210Z,101020.40
2018-06-13T01:09:20.758Z,101020.63
2018-06-13T01:11:49.404Z,101029.14
2018-06-13T01:14:17.965Z,101029.16
2018-06-13T01:16:46.552Z,101028.59
2018-06-13T01:19:15.079Z,101032.95
2018-06-13T01:21:43.736Z,101038.16
2018-06-13T01:24:12.371Z,101038.44
2018-06-13T01:26:40.994Z,101035.95
2018-06-13T01:29:09.682Z,101035.17
2018-06-13T01:31:38.217Z,101033.61
2018-06-13T01:34:06.847Z,101027.86
2018-06-13T01:36:35.384Z,101027.23
2018-06-13T01:39:05.204Z,101034.14
2018-06-13T01:41:33.806Z,101034.63
2018-06-13T01:44:02.421Z,101035.19
2018-06-13T01:46:30.967Z,101035.12
2018-06-13T01:48:59.725Z,101041.22
2018-06-13T01:51:28.287Z,101037.05
2018-06-13T01:53:56.892Z,101031.13
2018-06-13T01:56:25.788Z,101034.19
2018-06-13T01:58:54.394Z,101037.18
2018-06-13T02:01:22.956Z,101029.27
2018-06-13T02:03:51.536Z,101027.49
2018-06-13T02:06:20.146Z,101030.17
2018-06-13T02:08:48.726Z,101025.50
2018-06-13T02:11:17.284Z,101030.63
2018-06-13T02:13:45.857Z,101030.30
2018-06-13T02:16:14.443Z,101028.94
2018-06-13T02:18:42.981Z,101028.73
2018-06-13T02:21:11.591Z,101028.32
2018-06-13T02:23:40.128Z,101028.03
2018-06-13T02:26:08.712Z,101022.51
2018-06-13T02:28:37.304Z,101023.59
2018-06-13T02:31:05.947Z,101025.00
2018-06-13T02:33:34.542Z,101028.09
2018-06-13T02:36:03.127Z,101030.52
2018-06-13T02:38:31.661Z,101030.83
2018-06-13T02:41:00.206Z,101031.70
2018-06-13T02:43:28.755Z,101031.20
2018-06-13T02:45:57.405Z,101035.80
2018-06-13T02:48:26.191Z,101033.52
2018-06-13T02:50:54.835Z,101034.14
2018-06-13T02:53:23.399Z,101030.22
2018-06-13T02:55:51.957Z,101028.72
2018-06-13T02:58:20.541Z,101036.80
2018-06-13T03:00:49.082Z,101033.39
2018-06-13T03:03:17.666Z,101031.38
2018-06-13T03:05:46.220Z,101033.52
2018-06-13T03:08:14.826Z,101033.21
2018-06-13T03:10:43.501Z,101037.78
2018-06-13T03:13:12.236Z,101034.52
2018-06-13T03:15:40.782Z,101033.94
2018-06-13T03:18:09.543Z,101033.05
2018-06-13T03:20:38.123Z,101035.78
2018-06-13T03:23:06.746Z,101034.30
2018-06-13T03:25:35.330Z,101048.27
2018-06-13T03:28:04.201Z,101043.42
2018-06-13T03:30:33.014Z,101044.48
2018-06-13T03:33:01.670Z,101041.95
2018-06-13T03:35:30.208Z,101038.52
2018-06-13T03:37:58.766Z,101038.78
2018-06-13T03:40:27.381Z,101048.16
2018-06-13T03:42:56.037Z,101045.36
2018-06-13T03:45:24.572Z,101053.20
2018-06-13T03:47:53.183Z,101044.58
2018-06-13T03:50:21.845Z,101039.34
2018-06-13T03:52:50.530Z,101035.19
2018-06-13T03:55:19.111Z,101042.16
2018-06-13T03:57:47.709Z,101045.07
2018-06-13T04:00:16.352Z,101054.09
2018-06-13T04:02:44.964Z,101059.38
2018-06-13T04:05:13.688Z,101058.75
2018-06-13T04:07:42.261Z,101056.82
2018-06-13T04:10:10.833Z,101052.34
2018-06-13T04:12:39.458Z,101051.34
2018-06-13T04:15:08.029Z,101051.20
2018-06-13T04:17:36.576Z,101049.45
2018-06-13T04:20:05.293Z,101043.31
2018-06-13T04:22:33.823Z,101041.63
2018-06-13T04:25:02.433Z,101042.81
2018-06-13T04:27:31.042Z,101042.05
2018-06-13T04:29:59.647Z,101039.88
2018-06-13T04:32:28.347Z,101045.29
2018-06-13T04:34:56.940Z,101052.30
2018-06-13T04:37:25.514Z,101054.63
2018-06-13T04:39:54.064Z,101052.06
2018-06-13T04:42:22.616Z,101046.77
2018-06-13T04:44:51.177Z,101047.95
2018-06-13T04:47:19.852Z,101050.20
2018-06-13T04:49:48.407Z,101050.70
2018-06-13T04:52:16.965Z,101046.94
2018-06-13T04:54:45.561Z,101043.30
2018-06-13T04:57:14.175Z,101041.30
2018-06-13T04:59:42.865Z,101037.48
2018-06-13T05:02:11.459Z,101041.16
2018-06-13T05:04:40.147Z,101042.12
2018-06-13T05:07:08.740Z,101036.03
2018-06-13T05:09:37.336Z,101043.44
2018-06-13T05:12:06.197Z,101040.55
2018-06-13T05:14:34.744Z,101045.56
2018-06-13T05:17:03.328Z,101043.61
2018-06-13T05:19:32.017Z,101038.27
2018-06-13T05:22:00.708Z,101046.88
2018-06-13T05:24:29.308Z,101046.88
2018-06-13T05:26:57.970Z,101064.97
2018-06-13T05:29:26.613Z,101064.42
2018-06-13T05:31:55.243Z,101070.33
2018-06-13T05:34:23.911Z,101072.54
2018-06-13T05:36:52.545Z,101067.42
2018-06-13T05:39:21.187Z,101069.39
2018-06-13T05:41:49.785Z,101066.61
2018-06-13T05:44:18.368Z,101065.80
2018-06-13T05:46:46.973Z,101066.05
2018-06-13T05:49:15.736Z,101073.02
2018-06-13T05:51:44.441Z,101076.90
2018-06-13T05:54:13.212Z,101076.84
2018-06-13T05:56:41.841Z,101072.94
2018-06-13T05:59:10.645Z,101073.80
2018-06-13T06:01:39.275Z,101074.67
2018-06-13T06:04:08.580Z,101072.28
2018-06-13T06:06:37.352Z,101080.95
2018-06-13T06:09:08.973Z,101086.51
2018-06-13T06:11:37.754Z,101088.62
2018-06-13T06:14:06.388Z,101095.67
2018-06-13T06:16:34.973Z,101091.20
2018-06-13T06:19:03.618Z,101092.05
2018-06-13T06:21:32.330Z,101086.67
2018-06-13T06:24:04.034Z,101090.15
2018-06-13T06:26:32.897Z,101094.03
2018-06-13T06:29:01.461Z,101096.73
2018-06-13T06:31:30.128Z,101101.39
2018-06-13T06:33:58.753Z,101100.13
2018-06-13T06:36:27.412Z,101097.52
2018-06-13T06:38:56.136Z,101096.12
2018-06-13T06:41:24.789Z,101106.41
2018-06-13T06:43:53.473Z,101090.19
2018-06-13T06:46:22.060Z,101093.56
2018-06-13T06:48:51.581Z,101097.45
2018-06-13T06:51:20.182Z,101101.03
2018-06-13T06:53:48.794Z,101103.91
2018-06-13T06:56:17.461Z,101101.03
2018-06-13T06:58:46.082Z,101102.38
2018-06-13T07:01:14.848Z,101106.41
2018-06-13T07:03:43.661Z,101109.93
2018-06-13T07:06:12.322Z,101111.98
2018-06-13T07:08:40.934Z,101102.04
2018-06-13T07:11:10.130Z,101108.73
2018-06-13T07:13:38.765Z,101104.16
2018-06-13T07:16:07.552Z,101108.55
2018-06-13T07:18:36.250Z,101111.78
2018-06-13T07:21:04.848Z,101103.87
2018-06-13T07:23:33.585Z,101114.23
2018-06-13T07:26:02.290Z,101118.41
2018-06-13T07:28:31.066Z,101117.98
2018-06-13T07:30:59.787Z,101122.53
2018-06-13T07:33:28.519Z,101119.84
2018-06-13T07:35:59.253Z,101116.85
2018-06-13T07:38:27.952Z,101118.37
2018-06-13T07:40:56.660Z,101121.52
2018-06-13T07:43:25.436Z,101123.04
2018-06-13T07:45:54.068Z,101130.41
2018-06-13T07:48:22.771Z,101124.55
2018-06-13T07:50:51.321Z,101124.69
2018-06-13T07:53:20.237Z,101129.44
2018-06-13T07:55:48.959Z,101119.64
2018-06-13T07:58:17.725Z,101122.75
2018-06-13T08:00:46.365Z,101123.38
2018-06-13T08:03:14.942Z,101122.84
2018-06-13T08:05:43.578Z,101127.88
2018-06-13T08:08:12.160Z,101130.77
2018-06-13T08:10:40.845Z,101134.11
2018-06-13T08:13:09.414Z,101139.34
2018-06-13T08:15:38.083Z,101146.94
2018-06-13T08:18:06.656Z,101148.58
2018-06-13T08:20:35.262Z,101152.75
2018-06-13T08:23:04.009Z,101147.48
2018-06-13T08:25:32.651Z,101152.36
2018-06-13T08:28:01.244Z,101154.98
2018-06-13T08:30:29.855Z,101158.02
2018-06-13T08:32:58.405Z,101156.41
2018-06-13T08:35:27.063Z,101157.91
2018-06-13T08:37:55.777Z,101162.81
2018-06-13T08:40:24.472Z,101166.16
2018-06-13T08:42:53.024Z,101163.88
2018-06-13T08:45:22.048Z,101168.56
2018-06-13T08:47:50.720Z,101162.08
2018-06-13T08:50:19.405Z,101161.28
2018-06-13T08:52:48.026Z,101161.92
2018-06-13T08:55:16.797Z,101157.02
2018-06-13T08:57:45.424Z,101155.91
2018-06-13T09:00:14.001Z,101157.28
2018-06-13T09:02:42.686Z,101160.10
2018-06-13T09:05:11.252Z,101160.34
2018-06-13T09:07:39.981Z,101158.88
2018-06-13T09:10:08.600Z,101159.95
2018-06-13T09:12:37.384Z,101166.15
2018-06-13T09:15:06.203Z,101157.53
2018-06-13T09:17:34.900Z,101164.38
2018-06-13T09:20:05.051Z,101161.87
2018-06-13T09:22:41.931Z,101164.83
2018-06-13T09:25:20.848Z,101167.72
2018-06-13T09:27:51.306Z,101167.06
2018-06-13T09:30:20.582Z,101165.63
2018-06-13T09:32:49.387Z,101180.70
2018-06-13T09:35:19.366Z,101180.64
2018-06-13T09:37:57.977Z,101181.56
2018-06-13T09:40:27.402Z,101179.05
2018-06-13T09:42:57.785Z,101184.83
2018-06-13T09:45:27.399Z,101176.16
2018-06-13T09:47:56.572Z,101174.85
2018-06-13T09:50:27.362Z,101175.55
2018-06-13T09:52:59.939Z,101172.20
2018-06-13T09:55:44.496Z,101173.19
2018-06-13T10:01:17.159Z,101174.86
2018-06-13T10:03:46.559Z,101178.34
2018-06-13T10:06:15.590Z,101168.64
2018-06-13T10:08:44.648Z,101181.99
2018-06-13T10:11:13.639Z,101177.97
2018-06-13T10:13:43.895Z,101184.11
2018-06-13T10:16:13.194Z,101181.41
2018-06-13T10:18:41.775Z,101182.77
2018-06-13T10:21:10.402Z,101177.50
2018-06-13T10:23:38.983Z,101177.72
2018-06-13T10:26:07.565Z,101182.44
2018-06-13T10:28:36.321Z,101180.87
2018-06-13T10:31:05.042Z,101183.45
2018-06-13T10:33:33.620Z,101190.28
2018-06-13T10:36:02.240Z,101185.61
2018-06-13T10:38:30.888Z,101183.63
2018-06-13T10:40:59.569Z,101188.94
2018-06-13T10:43:28.128Z,101188.03
2018-06-13T10:45:56.961Z,101186.15
2018-06-13T10:48:25.673Z,101187.03
2018-06-13T10:50:54.449Z,101189.00
2018-06-13T10:53:23.113Z,101186.64
2018-06-13T10:55:51.662Z,101185.15
2018-06-13T10:58:20.325Z,101189.22
2018-06-13T11:00:49.047Z,101191.48
2018-06-13T11:03:17.678Z,101197.25
2018-06-13T11:05:46.536Z,101190.78
2018-06-13T11:08:15.145Z,101200.52
2018-06-13T11:10:43.901Z,101199.64
2018-06-13T11:13:12.578Z,101195.07
2018-06-13T11:15:41.262Z,101193.54
2018-06-13T11:18:09.988Z,101197.80
2018-06-13T11:20:38.718Z,101208.91
2018-06-13T11:23:07.466Z,101203.70
2018-06-13T11:25:36.200Z,101202.81
2018-06-13T11:28:05.040Z,101209.16
2018-06-13T11:30:33.656Z,101215.27
2018-06-13T11:33:02.447Z,101212.87
2018-06-13T11:35:31.064Z,101213.84
2018-06-13T11:37:59.643Z,101213.48
2018-06-13T11:40:28.280Z,101209.36
2018-06-13T11:42:56.945Z,101205.16
2018-06-13T11:45:25.654Z,101214.81
2018-06-13T11:47:54.287Z,101218.07
2018-06-13T11:50:23.032Z,101210.60
2018-06-13T11:52:51.605Z,101215.13
2018-06-13T11:55:20.336Z,101219.74
2018-06-13T11:57:48.856Z,101209.90
2018-06-13T12:00:17.461Z,101215.25
2018-06-13T12:02:46.178Z,101207.39
2018-06-13T12:05:15.120Z,101209.80
2018-06-13T12:07:43.778Z,101204.25
2018-06-13T12:10:12.521Z,101211.99
2018-06-13T12:12:41.242Z,101202.14
2018-06-13T12:15:09.874Z,101205.20
2018-06-13T12:17:39.938Z,101200.83
2018-06-13T12:20:08.753Z,101198.92
2018-06-13T12:22:37.481Z,101197.33
2018-06-13T12:25:06.305Z,101202.14
2018-06-13T12:27:35.088Z,101198.12
2018-06-13T12:30:03.759Z,101199.70
2018-06-13T12:32:32.444Z,101206.14
2018-06-13T12:35:01.200Z,101199.53
2018-06-13T12:37:29.825Z,101194.86
2018-06-13T12:39:58.645Z,101199.31
2018-06-13T12:42:27.356Z,101205.37
2018-06-13T12:44:55.997Z,101211.97
2018-06-13T12:47:24.668Z,101202.49
2018-06-13T12:49:53.297Z,101207.34
2018-06-13T12:52:22.073Z,101207.30
2018-06-13T12:54:50.684Z,101206.36
2018-06-13T12:57:20.693Z,101206.89
2018-06-13T12:59:49.244Z,101201.72
2018-06-13T13:02:17.839Z,101207.62
2018-06-13T13:04:46.603Z,101196.86
2018-06-13T13:07:15.265Z,101189.37
2018-06-13T13:09:43.968Z,101190.09
2018-06-13T13:12:13.093Z,101192.14
2018-06-13T13:14:41.893Z,101198.45
2018-06-13T13:17:10.665Z,101193.45
2018-06-13T13:19:39.288Z,101203.02
2018-06-13T13:22:08.101Z,101200.06
2018-06-13T13:24:36.729Z,101199.73
2018-06-13T13:27:05.402Z,101203.03
2018-06-13T13:29:35.278Z,101201.78
2018-06-13T13:32:03.889Z,101195.07
2018-06-13T13:34:32.572Z,101197.95
2018-06-13T13:37:01.171Z,101190.38
2018-06-13T13:39:29.708Z,101186.34
2018-06-13T13:41:58.508Z,101181.75
2018-06-13T13:44:27.177Z,101177.41
2018-06-13T13:46:55.789Z,101178.67
2018-06-13T13:49:24.364Z,101182.78
2018-06-13T13:51:53.808Z,101179.88
2018-06-13T13:54:22.433Z,101174.05
2018-06-13T13:56:50.997Z,101164.46
2018-06-13T13:59:19.577Z,101164.86
2018-06-13T14:01:48.351Z,101164.80
2018-06-13T14:04:17.637Z,101169.55
2018-06-13T14:06:46.272Z,101166.18
2018-06-13T14:09:14.831Z,101165.27
2018-06-13T14:11:43.479Z,101162.19
2018-06-13T14:14:12.226Z,101166.19
2018-06-13T14:16:40.960Z,101164.82
2018-06-13T14:19:09.663Z,101173.80
2018-06-13T14:21:38.301Z,101170.30
2018-06-13T14:24:07.160Z,101170.98
2018-06-13T14:26:35.843Z,101172.21
2018-06-13T14:29:04.511Z,101167.30
2018-06-13T14:31:33.285Z,101171.45
2018-06-13T14:34:02.152Z,101173.72
2018-06-13T14:36:31.127Z,101176.23
2018-06-13T14:38:59.841Z,101176.86
2018-06-13T14:41:28.598Z,101179.89
2018-06-13T14:43:57.276Z,101176.73
2018-06-13T14:46:25.986Z,101181.21
2018-06-13T14:48:54.608Z,101177.77
2018-06-13T14:51:23.185Z,101181.36
2018-06-13T14:53:53.970Z,101179.86
2018-06-13T14:56:27.764Z,101176.72
2018-06-13T14:58:57.032Z,101166.00
2018-06-13T15:01:25.613Z,101163.27
2018-06-13T15:03:54.285Z,101156.55
2018-06-13T15:06:23.488Z,101167.27
2018-06-13T15:08:52.142Z,101154.68
2018-06-13T15:11:20.767Z,101145.59
2018-06-13T15:13:49.775Z,101150.84
2018-06-13T15:16:18.442Z,101151.27
2018-06-13T15:18:47.324Z,101147.75
2018-06-13T15:21:16.191Z,101150.30
2018-06-13T15:23:45.092Z,101151.20
2018-06-13T15:26:13.709Z,101151.70
2018-06-13T15:28:42.375Z,101138.50
2018-06-13T15:31:11.127Z,101143.64
2018-06-13T15:33:39.723Z,101150.18
2018-06-13T15:36:08.407Z,101153.17
2018-06-13T15:38:37.009Z,101150.37
2018-06-13T15:41:05.882Z,101157.08
2018-06-13T15:43:34.524Z,101153.41
2018-06-13T15:46:03.093Z,101160.00
2018-06-13T15:48:31.681Z,101163.78
2018-06-13T15:51:00.404Z,101166.04
2018-06-13T15:53:29.141Z,101169.48
2018-06-13T15:55:57.759Z,101161.73
2018-06-13T15:58:26.332Z,101169.81
2018-06-13T16:00:54.964Z,101164.16
2018-06-13T16:03:23.629Z,101161.27
2018-06-13T16:05:52.257Z,101158.87
2018-06-13T16:08:20.841Z,101161.10
2018-06-13T16:10:49.595Z,101160.61
2018-06-13T16:13:18.182Z,101155.66
2018-06-13T16:15:46.830Z,101155.54
2018-06-13T16:18:15.389Z,101152.55
2018-06-13T16:20:44.066Z,101152.53
2018-06-13T16:23:12.697Z,101150.28
2018-06-13T16:25:41.336Z,101153.74
2018-06-13T16:28:09.996Z,101156.72
2018-06-13T16:30:38.689Z,101161.80
2018-06-13T16:33:07.362Z,101164.73
2018-06-13T16:35:35.963Z,101171.09
2018-06-13T16:38:04.670Z,101171.55
2018-06-13T16:40:33.286Z,101172.87
2018-06-13T16:43:01.898Z,101166.99
2018-06-13T16:45:30.648Z,101166.23
2018-06-13T16:47:59.256Z,101167.60
2018-06-13T16:50:39.000Z,101173.66
2018-06-13T16:54:13.262Z,101180.89
2018-06-13T16:56:42.415Z,101185.95
2018-06-13T16:59:11.031Z,101190.55
2018-06-13T17:01:39.744Z,101190.86
2018-06-13T17:04:08.528Z,101189.45
2018-06-13T17:06:37.188Z,101186.16
2018-06-13T17:09:07.365Z,101192.08
2018-06-13T17:11:36.001Z,101184.07
2018-06-13T17:14:04.660Z,101189.06
2018-06-13T17:16:33.289Z,101197.84
2018-06-13T17:19:01.908Z,101197.33
2018-06-13T17:21:30.483Z,101199.08
2018-06-13T17:23:59.224Z,101202.20
2018-06-13T17:26:27.824Z,101208.31
2018-06-13T17:28:56.702Z,101209.04
2018-06-13T17:31:25.466Z,101218.22
2018-06-13T17:33:54.317Z,101220.98
2018-06-13T17:36:22.981Z,101221.78
2018-06-13T17:38:51.710Z,101228.25
2018-06-13T17:41:20.507Z,101234.78
2018-06-13T17:43:49.053Z,101233.00
2018-06-13T17:46:17.911Z,101237.79
2018-06-13T17:48:46.683Z,101244.83
2018-06-13T17:51:15.469Z,101247.89
2018-06-13T17:53:44.475Z,101252.69
2018-06-13T17:56:13.301Z,101247.83
2018-06-13T17:58:41.933Z,101257.57
2018-06-13T18:01:10.696Z,101259.06
2018-06-13T18:03:39.310Z,101264.25
2018-06-13T18:06:07.959Z,101259.94
2018-06-13T18:08:36.575Z,101264.42
2018-06-13T18:13:57.250Z,101261.88
2018-06-13T18:16:26.089Z,101254.44
2018-06-13T18:18:54.749Z,101250.13
2018-06-13T18:21:23.786Z,101254.17
2018-06-13T18:23:52.578Z,101250.13
2018-06-13T18:26:21.176Z,101255.86
2018-06-13T18:28:49.851Z,101253.23
2018-06-13T18:31:18.503Z,101251.95
2018-06-13T18:33:47.182Z,101247.57
2018-06-13T18:36:15.837Z,101252.39
2018-06-13T18:38:44.561Z,101249.52
2018-06-13T18:41:13.169Z,101249.22
2018-06-13T18:43:41.899Z,101250.55
2018-06-13T18:46:10.542Z,101248.52
2018-06-13T18:48:39.245Z,101243.58
2018-06-13T18:51:07.901Z,101241.10
2018-06-13T18:53:36.524Z,101234.28
2018-06-13T18:56:05.310Z,101233.84
2018-06-13T18:58:33.964Z,101234.34
2018-06-13T19:01:02.631Z,101239.48
2018-06-13T19:03:31.262Z,101240.42
2018-06-13T19:05:59.980Z,101245.30
2018-06-13T19:08:28.588Z,101235.00
2018-06-13T19:10:57.319Z,101237.16
2018-06-13T19:13:25.986Z,101236.41
2018-06-13T19:15:54.584Z,101244.97
2018-06-13T19:18:23.121Z,101243.63
2018-06-13T19:20:51.776Z,101242.58
2018-06-13T19:23:20.344Z,101245.98
2018-06-13T19:25:49.039Z,101247.58
2018-06-13T19:28:17.669Z,101248.34
2018-06-13T19:30:46.441Z,101253.45
2018-06-13T19:33:15.036Z,101257.20
2018-06-13T19:35:43.664Z,101261.06
2018-06-13T19:38:12.287Z,101260.55
2018-06-13T19:40:41.053Z,101254.45
2018-06-13T19:43:14.892Z,101252.47
2018-06-13T19:45:43.546Z,101257.11
2018-06-13T19:49:17.508Z,101261.09
2018-06-13T19:51:46.166Z,101276.56
2018-06-13T19:54:19.731Z,101280.94
2018-06-13T19:56:48.330Z,101279.92
2018-06-13T19:59:16.909Z,101273.84
2018-06-13T20:01:45.569Z,101274.83
2018-06-13T20:04:19.411Z,101272.72
2018-06-13T20:06:48.088Z,101280.18
2018-06-13T20:09:16.752Z,101275.52
2018-06-13T20:11:45.361Z,101275.66
2018-06-13T20:14:19.136Z,101269.89
2018-06-13T20:16:53.674Z,101273.77
2018-06-13T20:19:27.478Z,101269.50
2018-06-13T20:21:57.432Z,101276.45
2018-06-13T20:24:26.180Z,101283.91
2018-06-13T20:26:59.899Z,101284.27
2018-06-13T20:29:33.632Z,101288.19
2018-06-13T20:32:02.357Z,101280.42
2018-06-13T20:34:30.965Z,101292.38
2018-06-13T20:36:59.640Z,101297.97
2018-06-13T20:39:28.298Z,101300.36
2018-06-13T20:41:56.866Z,101312.14
2018-06-13T20:44:26.013Z,101307.60
2018-06-13T20:46:54.656Z,101307.41
2018-06-13T20:49:23.264Z,101309.68
2018-06-13T20:51:51.870Z,101305.75
2018-06-13T20:54:20.605Z,101297.73
2018-06-13T20:56:49.136Z,101302.03
2018-06-13T20:59:17.742Z,101299.05
2018-06-13T21:01:47.007Z,101294.81
2018-06-13T21:04:15.643Z,101304.77
2018-06-13T21:06:44.202Z,101306.94
2018-06-13T21:09:12.788Z,101302.46
2018-06-13T21:11:41.398Z,101306.61
2018-06-13T21:14:10.172Z,101305.94
2018-06-13T21:16:38.780Z,101301.72
2018-06-13T21:19:07.428Z,101301.28
2018-06-13T21:21:36.061Z,101302.11
2018-06-13T21:24:04.749Z,101302.11
2018-06-13T21:26:33.345Z,101303.34
2018-06-13T21:29:02.149Z,101304.30
2018-06-13T21:31:30.817Z,101304.00
2018-06-13T21:33:59.408Z,101301.93
2018-06-13T21:36:28.173Z,101300.94
2018-06-13T21:38:56.786Z,101308.39
2018-06-13T21:41:25.563Z,101307.44
2018-06-13T21:43:54.908Z,101305.17
2018-06-13T21:46:23.609Z,101304.29
2018-06-13T21:48:52.311Z,101305.03
2018-06-13T21:51:20.973Z,101296.50
2018-06-13T21:53:49.781Z,101292.88
2018-06-13T21:56:18.460Z,101298.10
2018-06-13T21:58:47.411Z,101302.20
2018-06-13T22:01:16.054Z,101300.33
2018-06-13T22:03:45.199Z,101291.05
2018-06-13T22:06:13.773Z,101297.23
2018-06-13T22:08:42.545Z,101293.14
2018-06-13T22:11:11.504Z,101294.02
2018-06-13T22:13:40.156Z,101294.09
2018-06-13T22:16:08.797Z,101290.74
2018-06-13T22:18:37.544Z,101289.62
2018-06-13T22:21:06.117Z,101290.14
2018-06-13T22:23:34.764Z,101292.24
2018-06-13T22:26:03.352Z,101299.34
2018-06-13T22:28:32.147Z,101292.55
2018-06-13T22:31:00.761Z,101284.47
2018-06-13T22:33:29.443Z,101293.02
2018-06-13T22:35:58.138Z,101288.69
2018-06-13T22:38:26.748Z,101282.73
2018-06-13T22:40:55.395Z,101288.38
2018-06-13T22:43:23.951Z,101285.92
2018-06-13T22:45:52.590Z,101284.14
2018-06-13T22:48:21.133Z,101289.14
2018-06-13T22:50:49.968Z,101288.05
2018-06-13T22:53:18.610Z,101291.39
2018-06-13T22:55:47.312Z,101290.42
2018-06-13T22:58:16.486Z,101291.88
2018-06-13T23:06:25.368Z,101277.63
2018-06-13T23:08:54.174Z,101286.48
2018-06-13T23:11:24.242Z,101289.36
2018-06-13T23:13:53.259Z,101285.03
2018-06-13T23:16:22.381Z,101286.84
2018-06-13T23:18:56.605Z,101290.61
2018-06-13T23:21:25.397Z,101287.91
2018-06-13T23:23:54.221Z,101289.11
2018-06-13T23:26:23.353Z,101295.27
2018-06-13T23:28:52.682Z,101292.86
2018-06-13T23:31:21.703Z,101295.99
2018-06-13T23:33:50.490Z,101294.33
2018-06-13T23:36:19.403Z,101293.48
2018-06-13T23:38:48.428Z,101295.63
2018-06-13T23:41:19.096Z,101285.14
2018-06-13T23:43:47.768Z,101287.12
2018-06-13T23:46:16.504Z,101286.03
2018-06-13T23:48:45.314Z,101285.88
2018-06-13T23:51:14.096Z,101283.78
2018-06-13T23:53:42.880Z,101284.52
2018-06-13T23:56:11.560Z,101286.03
2018-06-13T23:58:40.165Z,101290.55
